createdAt,value
2023-01-09T00:00:30.220Z,7.30
2023-01-09T00:02:56.972Z,7.30
2023-01-09T00:05:23.675Z,7.30
2023-01-09T00:07:50.327Z,7.30
2023-01-09T00:10:17.091Z,7.30
2023-01-09T00:12:43.776Z,7.30
2023-01-09T00:15:10.638Z,7.40
2023-01-09T00:17:37.433Z,7.40
2023-01-09T00:20:06.826Z,7.40
2023-01-09T00:22:33.517Z,7.40
2023-01-09T00:25:00.136Z,7.40
2023-01-09T00:27:26.858Z,7.40
2023-01-09T00:29:53.587Z,7.40
2023-01-09T00:32:21.013Z,7.40
2023-01-09T00:34:47.645Z,7.40
2023-01-09T00:37:14.350Z,7.50
2023-01-09T00:39:42.475Z,7.40
2023-01-09T00:42:13.914Z,7.40
2023-01-09T00:44:46.182Z,7.30
2023-01-09T00:47:26.219Z,7.30
2023-01-09T00:49:54.247Z,7.30
2023-01-09T00:52:22.025Z,7.30
2023-01-09T00:54:50.022Z,7.30
2023-01-09T00:57:16.898Z,7.30
2023-01-09T00:59:44.178Z,7.30
2023-01-09T01:02:11.151Z,7.40
2023-01-09T01:04:56.931Z,7.40
2023-01-09T01:07:39.097Z,7.40
2023-01-09T01:10:10.443Z,7.30
2023-01-09T01:12:38.090Z,7.40
2023-01-09T01:15:05.798Z,7.30
2023-01-09T01:17:35.142Z,7.30
2023-01-09T01:20:02.392Z,7.30
2023-01-09T01:22:29.308Z,7.40
2023-01-09T01:24:56.095Z,7.40
2023-01-09T01:27:22.763Z,7.40
2023-01-09T01:29:49.479Z,7.30
2023-01-09T01:32:16.214Z,7.30
2023-01-09T01:34:43.039Z,7.30
2023-01-09T01:37:09.802Z,7.40
2023-01-09T01:39:36.405Z,7.30
2023-01-09T01:42:05.001Z,7.30
2023-01-09T01:45:09.251Z,7.30
2023-01-09T01:48:00.882Z,7.30
2023-01-09T01:50:53.954Z,7.30
2023-01-09T01:53:39.483Z,7.30
2023-01-09T01:56:25.158Z,7.30
2023-01-09T01:59:03.198Z,7.20
2023-01-09T02:01:31.014Z,7.20
2023-01-09T02:04:00.004Z,7.10
2023-01-09T02:06:27.624Z,7.10
2023-01-09T02:08:55.201Z,7.10
2023-01-09T02:11:22.008Z,7.10
2023-01-09T02:13:49.187Z,7.10
2023-01-09T02:16:36.749Z,7.10
2023-01-09T02:19:28.486Z,7.10
2023-01-09T02:22:43.478Z,7.10
2023-01-09T02:25:34.623Z,7.00
2023-01-09T02:28:13.541Z,7.00
2023-01-09T02:30:56.789Z,7.00
2023-01-09T02:33:41.825Z,7.00
2023-01-09T02:36:16.975Z,7.00
2023-01-09T02:38:57.993Z,7.00
2023-01-09T02:41:50.095Z,7.00
2023-01-09T02:44:25.782Z,6.90
2023-01-09T02:47:07.907Z,6.90
2023-01-09T02:49:38.756Z,6.90
2023-01-09T02:52:30.287Z,6.90
2023-01-09T02:55:25.377Z,6.90
2023-01-09T02:58:08.944Z,6.90
2023-01-09T03:00:50.116Z,6.80
2023-01-09T03:03:22.565Z,6.80
2023-01-09T03:06:04.292Z,6.70
2023-01-09T03:08:39.843Z,6.70
2023-01-09T03:11:08.833Z,6.60
2023-01-09T03:14:04.000Z,6.60
2023-01-09T03:16:35.522Z,6.60
2023-01-09T03:19:07.446Z,6.60
2023-01-09T03:21:34.931Z,6.60
2023-01-09T03:24:02.402Z,6.50
2023-01-09T03:26:31.003Z,6.50
2023-01-09T03:28:58.887Z,6.50
2023-01-09T03:31:25.833Z,6.50
2023-01-09T03:33:52.880Z,6.50
2023-01-09T03:36:21.602Z,6.40
2023-01-09T03:38:48.764Z,6.40
2023-01-09T03:41:15.644Z,6.40
2023-01-09T03:43:42.261Z,6.30
2023-01-09T03:46:09.085Z,6.30
2023-01-09T03:48:35.771Z,6.30
2023-01-09T03:51:02.920Z,6.30
2023-01-09T03:53:29.757Z,6.30
2023-01-09T03:55:58.700Z,6.30
2023-01-09T03:58:27.038Z,6.30
2023-01-09T04:01:03.344Z,6.20
2023-01-09T04:03:30.304Z,6.20
2023-01-09T04:05:57.352Z,6.20
2023-01-09T04:08:24.012Z,6.20
2023-01-09T04:10:51.800Z,6.20
2023-01-09T04:13:19.018Z,6.20
2023-01-09T04:15:46.143Z,6.20
2023-01-09T04:18:13.847Z,6.10
2023-01-09T04:20:41.087Z,6.20
2023-01-09T04:23:07.927Z,6.20
2023-01-09T04:25:34.957Z,6.10
2023-01-09T04:28:01.618Z,6.10
2023-01-09T04:30:28.202Z,6.10
2023-01-09T04:32:54.854Z,6.10
2023-01-09T04:35:21.862Z,6.10
2023-01-09T04:37:48.606Z,6.10
2023-01-09T04:40:16.578Z,6.10
2023-01-09T04:42:43.189Z,6.10
2023-01-09T04:45:11.486Z,6.10
2023-01-09T04:47:38.550Z,6.10
2023-01-09T04:50:05.657Z,6.10
2023-01-09T04:52:32.990Z,6.10
2023-01-09T04:54:59.728Z,6.10
2023-01-09T04:57:26.470Z,6.10
2023-01-09T04:59:54.241Z,6.10
2023-01-09T05:02:21.194Z,6.10
2023-01-09T05:04:48.163Z,6.10
2023-01-09T05:07:14.981Z,6.10
2023-01-09T05:09:41.926Z,6.10
2023-01-09T05:12:08.621Z,6.10
2023-01-09T05:14:35.362Z,6.10
2023-01-09T05:17:02.233Z,6.10
2023-01-09T05:19:29.280Z,6.10
2023-01-09T05:21:56.026Z,6.10
2023-01-09T05:24:22.643Z,6.10
2023-01-09T05:26:51.790Z,6.10
2023-01-09T05:29:18.427Z,6.00
2023-01-09T05:31:46.946Z,6.00
2023-01-09T05:34:13.625Z,6.00
2023-01-09T05:36:40.493Z,6.00
2023-01-09T05:39:07.316Z,6.00
2023-01-09T05:41:34.088Z,6.00
2023-01-09T05:44:00.727Z,6.00
2023-01-09T05:46:27.351Z,6.00
2023-01-09T05:48:54.009Z,6.00
2023-01-09T05:51:20.683Z,5.90
2023-01-09T05:53:50.098Z,5.90
2023-01-09T05:56:16.947Z,5.80
2023-01-09T05:58:43.648Z,5.80
2023-01-09T06:01:10.330Z,5.80
2023-01-09T06:03:37.207Z,5.70
2023-01-09T06:06:04.010Z,5.70
2023-01-09T06:08:30.632Z,5.70
2023-01-09T06:10:57.276Z,5.60
2023-01-09T06:13:23.895Z,5.60
2023-01-09T06:15:50.522Z,5.50
2023-01-09T06:18:17.249Z,5.50
2023-01-09T06:20:46.984Z,5.50
2023-01-09T06:23:14.038Z,5.50
2023-01-09T06:25:41.206Z,5.50
2023-01-09T06:28:07.967Z,5.50
2023-01-09T06:30:34.697Z,5.50
2023-01-09T06:33:01.452Z,5.50
2023-01-09T06:35:28.206Z,5.50
2023-01-09T06:37:54.886Z,5.40
2023-01-09T06:40:21.539Z,5.50
2023-01-09T06:42:51.282Z,5.40
2023-01-09T06:45:18.321Z,5.40
2023-01-09T06:47:45.114Z,5.40
2023-01-09T06:50:12.745Z,5.40
2023-01-09T06:52:39.991Z,5.40
2023-01-09T06:55:08.258Z,5.30
2023-01-09T06:57:35.033Z,5.30
2023-01-09T07:00:01.963Z,5.30
2023-01-09T07:02:28.659Z,5.20
2023-01-09T07:04:55.307Z,5.20
2023-01-09T07:07:22.397Z,5.20
2023-01-09T07:09:49.248Z,5.10
2023-01-09T07:12:16.036Z,5.10
2023-01-09T07:14:43.013Z,5.10
2023-01-09T07:17:12.315Z,5.10
2023-01-09T07:19:38.944Z,5.10
2023-01-09T07:22:05.626Z,5.10
2023-01-09T07:24:32.355Z,5.10
2023-01-09T07:26:58.995Z,5.10
2023-01-09T07:29:25.618Z,5.00
2023-01-09T07:31:52.214Z,5.00
2023-01-09T07:34:19.456Z,5.00
2023-01-09T07:36:46.772Z,5.00
2023-01-09T07:39:13.792Z,4.90
2023-01-09T07:41:40.571Z,4.90
2023-01-09T07:44:11.162Z,4.90
2023-01-09T07:46:38.139Z,4.90
2023-01-09T07:49:04.875Z,4.90
2023-01-09T07:51:31.576Z,4.90
2023-01-09T07:53:58.858Z,5.00
2023-01-09T07:56:25.556Z,5.20
2023-01-09T07:58:52.241Z,5.20
2023-01-09T08:01:18.998Z,5.30
2023-01-09T08:03:46.788Z,5.40
2023-01-09T08:06:13.494Z,5.40
2023-01-09T08:08:40.095Z,5.50
2023-01-09T08:11:06.792Z,5.60
2023-01-09T08:13:33.710Z,5.60
2023-01-09T08:16:00.408Z,5.60
2023-01-09T08:18:27.071Z,5.60
2023-01-09T08:20:53.727Z,5.60
2023-01-09T08:23:20.333Z,5.70
2023-01-09T08:25:46.943Z,5.70
2023-01-09T08:28:13.641Z,5.70
2023-01-09T08:30:40.463Z,5.80
2023-01-09T08:33:07.268Z,5.90
2023-01-09T08:35:34.013Z,5.90
2023-01-09T08:38:00.740Z,5.90
2023-01-09T08:40:27.503Z,6.00
2023-01-09T08:43:12.783Z,6.10
2023-01-09T08:45:58.320Z,6.10
2023-01-09T08:48:25.239Z,6.20
2023-01-09T08:50:54.001Z,6.20
2023-01-09T08:53:20.767Z,6.30
2023-01-09T08:55:47.802Z,6.30
2023-01-09T08:58:14.611Z,6.30
2023-01-09T09:00:41.607Z,6.40
2023-01-09T09:03:09.741Z,6.50
2023-01-09T09:05:36.454Z,6.50
2023-01-09T09:08:04.024Z,6.50
2023-01-09T09:10:31.153Z,6.60
2023-01-09T09:12:59.306Z,6.80
2023-01-09T09:15:28.013Z,6.90
2023-01-09T09:17:57.324Z,6.90
2023-01-09T09:20:26.071Z,6.80
2023-01-09T09:22:52.860Z,6.70
2023-01-09T09:25:20.185Z,6.60
2023-01-09T09:27:47.393Z,6.60
2023-01-09T09:30:17.114Z,6.60
2023-01-09T09:32:49.292Z,6.50
2023-01-09T09:35:17.849Z,6.60
2023-01-09T09:37:54.300Z,6.60
2023-01-09T09:40:31.112Z,6.80
2023-01-09T09:43:35.476Z,7.00
2023-01-09T09:46:30.564Z,7.10
2023-01-09T09:49:02.397Z,7.30
2023-01-09T09:51:59.339Z,7.40
2023-01-09T09:54:58.134Z,7.30
2023-01-09T09:57:34.192Z,7.20
2023-01-09T10:00:02.152Z,7.30
2023-01-09T10:02:42.806Z,7.40
2023-01-09T10:05:18.287Z,7.50
2023-01-09T10:07:48.995Z,7.70
2023-01-09T10:10:44.072Z,7.80
2023-01-09T10:13:36.097Z,7.90
2023-01-09T10:16:33.402Z,7.90
2023-01-09T10:19:19.179Z,7.90
2023-01-09T10:21:57.269Z,8.00
2023-01-09T10:24:34.159Z,8.00
2023-01-09T10:27:08.240Z,7.90
2023-01-09T10:30:01.011Z,7.90
2023-01-09T10:32:34.713Z,7.80
2023-01-09T10:35:07.343Z,7.80
2023-01-09T10:37:46.585Z,7.70
2023-01-09T10:40:22.428Z,7.60
2023-01-09T10:42:55.279Z,7.60
2023-01-09T10:45:31.289Z,7.70
2023-01-09T10:48:34.995Z,7.80
2023-01-09T10:51:03.559Z,7.90
2023-01-09T10:53:38.609Z,7.70
2023-01-09T10:56:37.005Z,7.60
2023-01-09T10:59:03.674Z,7.50
2023-01-09T11:01:38.105Z,7.50
2023-01-09T11:04:26.891Z,7.60
2023-01-09T11:07:00.105Z,7.60
2023-01-09T11:09:26.969Z,7.60
2023-01-09T11:11:53.632Z,7.50
2023-01-09T11:14:31.735Z,7.50
2023-01-09T11:17:03.208Z,7.50
2023-01-09T11:19:34.360Z,7.70
2023-01-09T11:22:17.684Z,7.90
2023-01-09T11:24:44.906Z,8.00
2023-01-09T11:27:14.242Z,8.00
2023-01-09T11:29:42.036Z,8.10
2023-01-09T11:32:23.425Z,8.10
2023-01-09T11:34:50.254Z,8.30
2023-01-09T11:37:26.005Z,8.30
2023-01-09T11:39:53.145Z,8.30
2023-01-09T11:42:43.185Z,8.30
2023-01-09T11:45:21.932Z,8.10
2023-01-09T11:47:48.636Z,8.10
2023-01-09T11:50:23.943Z,8.10
2023-01-09T11:53:16.415Z,8.20
2023-01-09T11:55:44.298Z,8.10
2023-01-09T11:58:16.635Z,8.10
2023-01-09T12:00:53.836Z,8.00
2023-01-09T12:03:26.292Z,7.90
2023-01-09T12:06:28.927Z,7.90
2023-01-09T12:09:00.778Z,7.80
2023-01-09T12:11:42.591Z,7.80
2023-01-09T12:14:25.804Z,7.80
2023-01-09T12:16:55.456Z,7.80
2023-01-09T12:19:25.116Z,7.70
2023-01-09T12:22:12.069Z,7.60
2023-01-09T12:24:49.441Z,7.60
2023-01-09T12:27:28.257Z,7.60
2023-01-09T12:30:01.089Z,7.70
2023-01-09T12:32:46.056Z,7.70
2023-01-09T12:35:40.436Z,7.70
2023-01-09T12:38:31.855Z,7.70
2023-01-09T12:41:22.694Z,7.70
2023-01-09T12:44:35.469Z,7.60
2023-01-09T12:47:49.986Z,7.60
2023-01-09T12:50:37.964Z,7.60
2023-01-09T12:53:24.929Z,7.50
2023-01-09T12:55:59.958Z,7.40
2023-01-09T12:58:26.553Z,7.30
2023-01-09T13:00:56.366Z,7.20
2023-01-09T13:03:34.254Z,7.20
2023-01-09T13:06:02.962Z,7.10
2023-01-09T13:08:54.940Z,7.20
2023-01-09T13:11:31.386Z,7.20
2023-01-09T13:14:20.472Z,7.20
2023-01-09T13:16:53.490Z,7.20
2023-01-09T13:19:39.802Z,7.30
2023-01-09T13:22:07.800Z,7.30
2023-01-09T13:24:44.424Z,7.30
2023-01-09T13:27:15.886Z,7.30
2023-01-09T13:29:45.466Z,7.20
2023-01-09T13:32:25.683Z,7.30
2023-01-09T13:34:54.715Z,7.30
2023-01-09T13:37:33.498Z,7.30
2023-01-09T13:40:02.991Z,7.30
2023-01-09T13:42:36.131Z,7.20
2023-01-09T13:45:16.887Z,7.30
2023-01-09T13:47:44.300Z,7.30
2023-01-09T13:50:10.875Z,7.30
2023-01-09T13:52:42.578Z,7.30
2023-01-09T13:55:12.241Z,7.30
2023-01-09T13:57:43.688Z,7.30
2023-01-09T14:00:14.312Z,7.30
2023-01-09T14:02:41.163Z,7.30
2023-01-09T14:05:12.047Z,7.20
2023-01-09T14:07:49.050Z,7.20
2023-01-09T14:10:26.287Z,7.20
2023-01-09T14:12:55.589Z,7.20
2023-01-09T14:15:39.276Z,7.20
2023-01-09T14:18:14.733Z,7.10
2023-01-09T14:21:00.349Z,7.10
2023-01-09T14:23:46.137Z,7.00
2023-01-09T14:26:39.764Z,6.90
2023-01-09T14:29:28.249Z,6.70
2023-01-09T14:32:36.052Z,6.60
2023-01-09T14:35:15.570Z,6.50
2023-01-09T14:37:43.534Z,6.50
2023-01-09T14:40:22.752Z,6.40
2023-01-09T14:42:55.265Z,6.30
2023-01-09T14:45:25.631Z,6.30
2023-01-09T14:48:00.475Z,6.40
2023-01-09T14:50:35.852Z,6.30
2023-01-09T14:53:06.767Z,6.30
2023-01-09T14:55:42.404Z,6.20
2023-01-09T14:58:18.153Z,6.20
2023-01-09T15:01:11.214Z,6.30
2023-01-09T15:04:00.862Z,6.30
2023-01-09T15:06:36.119Z,6.30
2023-01-09T15:09:08.684Z,6.20
2023-01-09T15:11:38.648Z,6.20
2023-01-09T15:14:06.372Z,6.20
2023-01-09T15:16:33.304Z,6.10
2023-01-09T15:19:07.459Z,6.10
2023-01-09T15:21:34.151Z,6.10
2023-01-09T15:24:26.932Z,6.10
2023-01-09T15:26:55.256Z,6.00
2023-01-09T15:29:22.802Z,6.00
2023-01-09T15:32:00.370Z,6.00
2023-01-09T15:34:27.394Z,6.00
2023-01-09T15:36:54.392Z,5.90
2023-01-09T15:39:36.120Z,5.90
2023-01-09T15:42:21.919Z,5.90
2023-01-09T15:44:52.022Z,5.80
2023-01-09T15:47:27.517Z,5.80
2023-01-09T15:49:56.170Z,5.80
2023-01-09T15:52:24.005Z,5.80
2023-01-09T15:54:51.059Z,5.70
2023-01-09T15:57:26.983Z,5.70
2023-01-09T16:00:17.878Z,5.70
2023-01-09T16:03:06.255Z,5.70
2023-01-09T16:05:33.656Z,5.70
2023-01-09T16:08:02.401Z,5.70
2023-01-09T16:10:35.388Z,5.70
2023-01-09T16:13:02.895Z,5.70
2023-01-09T16:15:34.386Z,5.70
2023-01-09T16:18:16.194Z,5.80
2023-01-09T16:20:43.581Z,5.80
2023-01-09T16:23:22.856Z,5.80
2023-01-09T16:25:49.933Z,5.80
2023-01-09T16:28:27.241Z,5.80
2023-01-09T16:31:08.098Z,5.80
2023-01-09T16:33:35.349Z,5.80
2023-01-09T16:36:04.844Z,5.80
2023-01-09T16:38:31.666Z,5.80
2023-01-09T16:41:28.290Z,5.80
2023-01-09T16:43:54.963Z,5.90
2023-01-09T16:46:22.025Z,5.90
2023-01-09T16:48:53.234Z,5.90
2023-01-09T16:51:22.727Z,5.90
2023-01-09T16:53:50.102Z,5.90
2023-01-09T16:56:20.341Z,5.90
2023-01-09T16:58:47.138Z,5.90
2023-01-09T17:01:15.626Z,5.90
2023-01-09T17:03:44.251Z,6.00
2023-01-09T17:06:23.458Z,6.00
2023-01-09T17:08:51.406Z,6.00
2023-01-09T17:11:31.383Z,6.00
2023-01-09T17:14:01.959Z,6.00
2023-01-09T17:16:29.861Z,6.00
2023-01-09T17:18:56.949Z,6.00
2023-01-09T17:21:28.704Z,6.00
2023-01-09T17:24:24.901Z,5.90
2023-01-09T17:27:10.159Z,5.90
2023-01-09T17:29:37.124Z,5.90
2023-01-09T17:32:04.041Z,5.80
2023-01-09T17:34:30.829Z,5.80
2023-01-09T17:36:57.562Z,5.70
2023-01-09T17:39:24.172Z,5.60
2023-01-09T17:41:50.786Z,5.60
2023-01-09T17:44:17.531Z,5.50
2023-01-09T17:46:45.023Z,5.50
2023-01-09T17:49:17.291Z,5.50
2023-01-09T17:51:44.212Z,5.50
2023-01-09T17:54:10.938Z,5.50
2023-01-09T17:56:39.645Z,5.50
2023-01-09T17:59:10.080Z,5.50
2023-01-09T18:01:37.277Z,5.40
2023-01-09T18:04:04.089Z,5.40
2023-01-09T18:06:30.728Z,5.40
2023-01-09T18:08:58.428Z,5.30
2023-01-09T18:11:25.345Z,5.20
2023-01-09T18:13:56.111Z,5.20
2023-01-09T18:16:25.879Z,5.20
2023-01-09T18:18:55.157Z,5.20
2023-01-09T18:21:24.691Z,5.20
2023-01-09T18:23:51.580Z,5.20
2023-01-09T18:26:20.768Z,5.20
2023-01-09T18:28:55.061Z,5.30
2023-01-09T18:31:23.853Z,5.30
2023-01-09T18:33:52.117Z,5.30
2023-01-09T18:36:24.243Z,5.30
2023-01-09T18:38:53.109Z,5.30
2023-01-09T18:41:21.070Z,5.30
2023-01-09T18:43:52.873Z,5.30
2023-01-09T18:46:23.938Z,5.30
2023-01-09T18:48:52.653Z,5.30
2023-01-09T18:51:19.343Z,5.30
2023-01-09T18:53:45.976Z,5.30
2023-01-09T18:56:12.613Z,5.30
2023-01-09T18:58:39.423Z,5.40
2023-01-09T19:01:06.311Z,5.30
2023-01-09T19:03:33.035Z,5.20
2023-01-09T19:06:01.426Z,5.30
2023-01-09T19:08:32.607Z,5.30
2023-01-09T19:10:59.632Z,5.30
2023-01-09T19:13:33.588Z,5.30
2023-01-09T19:16:00.946Z,5.30
2023-01-09T19:18:29.395Z,5.30
2023-01-09T19:20:56.007Z,5.30
2023-01-09T19:23:25.843Z,5.30
2023-01-09T19:25:53.449Z,5.30
2023-01-09T19:28:20.585Z,5.30
2023-01-09T19:30:54.533Z,5.30
2023-01-09T19:33:21.204Z,5.30
2023-01-09T19:35:53.960Z,5.20
2023-01-09T19:38:24.835Z,5.30
2023-01-09T19:40:51.650Z,5.30
2023-01-09T19:43:27.304Z,5.30
2023-01-09T19:45:55.368Z,5.30
2023-01-09T19:48:23.359Z,5.30
2023-01-09T19:50:50.115Z,5.30
2023-01-09T19:53:16.839Z,5.30
2023-01-09T19:55:43.445Z,5.20
2023-01-09T19:58:10.203Z,5.10
2023-01-09T20:00:37.094Z,5.10
2023-01-09T20:03:03.793Z,5.10
2023-01-09T20:05:30.464Z,5.00
2023-01-09T20:07:57.633Z,4.90
2023-01-09T20:10:24.461Z,4.80
2023-01-09T20:12:51.490Z,4.80
2023-01-09T20:15:18.230Z,4.70
2023-01-09T20:17:44.875Z,4.70
2023-01-09T20:20:11.689Z,4.80
2023-01-09T20:22:38.333Z,4.80
2023-01-09T20:25:07.824Z,4.70
2023-01-09T20:27:34.496Z,4.70
2023-01-09T20:30:01.120Z,4.80
2023-01-09T20:32:29.798Z,4.70
2023-01-09T20:34:57.048Z,4.80
2023-01-09T20:37:23.739Z,4.90
2023-01-09T20:39:53.319Z,4.90
2023-01-09T20:42:19.984Z,4.90
2023-01-09T20:44:46.884Z,4.90
2023-01-09T20:47:13.808Z,4.90
2023-01-09T20:49:40.584Z,4.90
2023-01-09T20:52:07.316Z,4.90
2023-01-09T20:54:35.476Z,4.90
2023-01-09T20:57:02.200Z,4.90
2023-01-09T20:59:28.940Z,4.90
2023-01-09T21:01:55.664Z,5.00
2023-01-09T21:04:22.338Z,5.00
2023-01-09T21:06:50.450Z,5.00
2023-01-09T21:09:17.615Z,5.00
2023-01-09T21:11:44.283Z,5.00
2023-01-09T21:14:10.913Z,5.10
2023-01-09T21:16:37.737Z,5.00
2023-01-09T21:19:04.485Z,5.10
2023-01-09T21:21:31.180Z,5.10
2023-01-09T21:24:00.750Z,5.10
2023-01-09T21:26:30.217Z,5.10
2023-01-09T21:28:58.619Z,5.00
2023-01-09T21:31:34.276Z,5.10
2023-01-09T21:34:07.071Z,5.10
2023-01-09T21:36:35.104Z,5.10
2023-01-09T21:39:02.093Z,5.10
2023-01-09T21:41:47.025Z,5.10
2023-01-09T21:44:32.390Z,5.10
2023-01-09T21:47:00.114Z,5.20
2023-01-09T21:49:31.033Z,5.10
2023-01-09T21:51:57.918Z,5.10
2023-01-09T21:54:25.055Z,5.20
2023-01-09T21:56:52.668Z,5.20
2023-01-09T21:59:19.596Z,5.20
2023-01-09T22:01:47.640Z,5.20
2023-01-09T22:04:16.009Z,5.20
2023-01-09T22:06:43.010Z,5.20
2023-01-09T22:09:10.201Z,5.20
2023-01-09T22:11:38.512Z,5.20
2023-01-09T22:14:05.757Z,5.20
2023-01-09T22:16:33.277Z,5.30
2023-01-09T22:19:00.041Z,5.30
2023-01-09T22:21:26.781Z,5.30
2023-01-09T22:23:54.086Z,5.20
2023-01-09T22:26:21.270Z,5.30
2023-01-09T22:28:48.304Z,5.30
2023-01-09T22:31:20.812Z,5.20
2023-01-09T22:33:55.210Z,5.30
2023-01-09T22:36:21.853Z,5.30
2023-01-09T22:38:51.684Z,5.40
2023-01-09T22:41:18.280Z,5.40
2023-01-09T22:43:44.875Z,5.30
2023-01-09T22:46:11.991Z,5.40
2023-01-09T22:48:39.787Z,5.40
2023-01-09T22:51:13.537Z,5.40
2023-01-09T22:53:40.249Z,5.30
2023-01-09T22:56:09.804Z,5.30
2023-01-09T22:58:36.644Z,5.30
2023-01-09T23:01:04.491Z,5.30
2023-01-09T23:03:31.248Z,5.40
2023-01-09T23:06:06.958Z,5.30
2023-01-09T23:08:34.213Z,5.30
2023-01-09T23:11:01.634Z,5.30
2023-01-09T23:13:28.332Z,5.30
2023-01-09T23:15:55.109Z,5.30
2023-01-09T23:18:21.834Z,5.30
2023-01-09T23:20:57.143Z,5.30
2023-01-09T23:23:25.237Z,5.30
2023-01-09T23:25:57.448Z,5.30
2023-01-09T23:28:25.526Z,5.30
2023-01-09T23:30:53.032Z,5.20
2023-01-09T23:33:21.067Z,5.20
2023-01-09T23:35:48.363Z,5.20
2023-01-09T23:38:15.398Z,5.20
2023-01-09T23:40:42.635Z,5.20
2023-01-09T23:43:14.905Z,5.20
2023-01-09T23:45:43.942Z,5.20
2023-01-09T23:48:15.324Z,5.20
2023-01-09T23:51:00.220Z,5.10
2023-01-09T23:53:27.096Z,5.10
2023-01-09T23:55:55.156Z,5.10
2023-01-09T23:58:22.218Z,5.10
